Time;durP1;ratioP1;P1;durP2;ratioP2;P2;SDS_P1;SDS_P2;PMS_P1;PMS_P2;Temp;Humidity;BMP_temperature;BMP_pressure;BME280_temperature;BME280_humidity;BME280_pressure;Samples;Min_cycle;Max_cycle;Signal;HPM_P1;HPM_P2
2021/03/18 00:00:28;;;;;;;19.97;10.20;;;5.00;85.90;;;;;;5015199;28;20022;-90
2021/03/18 00:02:54;;;;;;;22.55;10.38;;;5.00;86.00;;;;;;5016019;28;20030;-90
2021/03/18 00:05:20;;;;;;;19.53;10.80;;;4.90;86.10;;;;;;5016120;28;20083;-90
2021/03/18 00:07:46;;;;;;;20.57;9.73;;;4.90;86.20;;;;;;5015414;28;20079;-90
2021/03/18 00:10:12;;;;;;;22.33;10.60;;;4.90;86.30;;;;;;5016938;28;20029;-90
2021/03/18 00:12:37;;;;;;;18.83;10.70;;;4.90;86.40;;;;;;5016515;28;20034;-90
2021/03/18 00:15:09;;;;;;;17.90;9.20;;;4.80;86.30;;;;;;5016785;28;20022;-90
2021/03/18 00:17:35;;;;;;;20.90;10.37;;;4.80;86.40;;;;;;5019562;28;20026;-89
2021/03/18 00:20:07;;;;;;;18.50;10.10;;;4.80;86.50;;;;;;5020632;28;20479;-89
2021/03/18 00:22:33;;;;;;;19.27;11.10;;;4.80;86.60;;;;;;5020358;28;20087;-89
2021/03/18 00:24:58;;;;;;;19.73;10.30;;;4.70;86.60;;;;;;5020240;28;20116;-90
2021/03/18 00:27:24;;;;;;;17.70;9.77;;;4.70;87.30;;;;;;5020520;28;20026;-90
2021/03/18 00:29:49;;;;;;;19.03;9.93;;;4.70;86.70;;;;;;5020950;28;20487;-90
2021/03/18 00:32:15;;;;;;;21.17;9.97;;;4.70;86.80;;;;;;5020107;28;20360;-90
2021/03/18 00:34:41;;;;;;;20.03;10.27;;;4.60;87.10;;;;;;5021111;28;20104;-89
2021/03/18 00:37:06;;;;;;;20.70;10.60;;;4.60;86.90;;;;;;5020666;28;20026;-90
2021/03/18 00:39:32;;;;;;;21.47;10.00;;;4.60;87.00;;;;;;5020679;28;20449;-90
2021/03/18 00:41:57;;;;;;;17.37;9.63;;;4.50;87.00;;;;;;5019864;28;20091;-89
2021/03/18 00:44:23;;;;;;;16.87;9.10;;;4.50;87.00;;;;;;5019709;28;20041;-90
2021/03/18 00:46:48;;;;;;;20.40;9.47;;;4.50;87.10;;;;;;5019487;28;20025;-89
2021/03/18 00:49:14;;;;;;;20.40;10.07;;;4.40;87.10;;;;;;5019787;28;20075;-90
2021/03/18 00:51:40;;;;;;;18.50;9.30;;;4.50;87.20;;;;;;5019575;28;20029;-90
2021/03/18 00:54:05;;;;;;;16.73;9.27;;;4.40;87.20;;;;;;5019157;28;20080;-89
2021/03/18 00:56:31;;;;;;;20.53;10.30;;;4.40;87.20;;;;;;5018908;28;20055;-90
2021/03/18 00:58:57;;;;;;;20.07;9.50;;;4.40;87.80;;;;;;5018573;28;20079;-89
2021/03/18 01:01:25;;;;;;;20.10;10.17;;;4.40;87.00;;;;;;5019080;28;20515;-90
2021/03/18 01:03:50;;;;;;;20.03;10.33;;;4.40;87.10;;;;;;5018959;28;20029;-89
2021/03/18 01:06:28;;;;;;;21.40;10.70;;;4.40;87.00;;;;;;5018460;28;20079;-89
2021/03/18 01:08:55;;;;;;;19.70;9.90;;;4.40;87.10;;;;;;5018870;28;20033;-90
2021/03/18 01:11:24;;;;;;;20.03;9.93;;;4.40;87.20;;;;;;5018895;28;20097;-89
2021/03/18 01:13:57;;;;;;;22.45;10.48;;;4.30;87.20;;;;;;5004925;28;20038;-89
2021/03/18 01:16:29;;;;;;;18.37;10.03;;;4.30;87.20;;;;;;4998765;28;20040;-90
2021/03/18 01:18:59;;;;;;;22.30;10.60;;;4.30;87.20;;;;;;4998384;28;20117;-90
2021/03/18 01:21:28;;;;;;;18.73;9.13;;;4.30;87.20;;;;;;5001953;28;20026;-90
2021/03/18 01:23:54;;;;;;;23.13;10.70;;;4.30;87.10;;;;;;4999174;28;20030;-90
2021/03/18 01:26:19;;;;;;;20.67;10.37;;;4.40;87.10;;;;;;4999664;28;20088;-89
2021/03/18 01:28:45;;;;;;;20.93;10.90;;;4.40;87.00;;;;;;4998583;28;20022;-89
2021/03/18 01:31:12;;;;;;;19.80;10.53;;;4.30;87.00;;;;;;5000319;28;20054;-90
2021/03/18 01:33:39;;;;;;;22.47;10.73;;;4.30;87.00;;;;;;4999773;28;20025;-90
2021/03/18 01:36:07;;;;;;;22.03;10.97;;;4.30;87.00;;;;;;4999549;28;20018;-89
2021/03/18 01:38:34;;;;;;;22.00;10.70;;;4.30;87.10;;;;;;4998790;28;20032;-90
2021/03/18 01:41:02;;;;;;;21.10;9.73;;;4.30;87.20;;;;;;5000715;28;20492;-89
2021/03/18 01:43:27;;;;;;;18.43;11.00;;;4.30;87.10;;;;;;4999143;28;20026;-89
2021/03/18 01:45:53;;;;;;;19.77;9.57;;;4.30;87.30;;;;;;4998608;28;20075;-89
2021/03/18 01:48:20;;;;;;;19.07;10.50;;;4.30;87.30;;;;;;4998096;28;20376;-89
2021/03/18 01:50:46;;;;;;;19.40;9.80;;;4.20;87.30;;;;;;5000249;28;20084;-90
2021/03/18 01:53:12;;;;;;;19.37;9.47;;;4.20;87.40;;;;;;4999500;28;20053;-90
2021/03/18 01:55:42;;;;;;;19.07;9.80;;;4.20;87.30;;;;;;4999207;28;20030;-89
2021/03/18 01:58:10;;;;;;;18.20;9.93;;;4.20;87.40;;;;;;4999068;28;20025;-89
2021/03/18 02:00:38;;;;;;;17.67;9.10;;;4.20;87.40;;;;;;4999203;28;20033;-89
2021/03/18 02:03:04;;;;;;;20.00;9.43;;;4.20;87.50;;;;;;4996311;28;20048;-89
2021/03/18 02:05:31;;;;;;;21.57;10.23;;;4.10;87.40;;;;;;4996536;28;20026;-89
2021/03/18 02:07:57;;;;;;;17.83;9.03;;;4.20;87.50;;;;;;4996015;28;20037;-89
2021/03/18 02:10:34;;;;;;;22.53;9.50;;;4.20;87.60;;;;;;4996392;28;20530;-90
2021/03/18 02:13:02;;;;;;;19.47;9.03;;;4.20;87.50;;;;;;4995834;28;20233;-90
2021/03/18 02:15:33;;;;;;;18.43;8.60;;;4.10;87.50;;;;;;4996419;28;20021;-91
2021/03/18 02:18:15;;;;;;;19.03;8.57;;;4.20;87.50;;;;;;4996218;28;20029;-90
2021/03/18 02:21:08;;;;;;;20.10;8.53;;;4.20;87.50;;;;;;4996195;28;20032;-89
2021/03/18 02:23:52;;;;;;;18.47;8.63;;;4.30;87.50;;;;;;4995608;28;20168;-90
2021/03/18 02:26:33;;;;;;;23.00;9.03;;;4.20;87.40;;;;;;4995678;28;20025;-89
2021/03/18 02:29:36;;;;;;;20.23;8.47;;;4.20;88.00;;;;;;4995543;28;20049;-90
2021/03/18 02:32:22;;;;;;;21.70;8.60;;;4.20;87.40;;;;;;4995618;28;20037;-89
2021/03/18 02:35:07;;;;;;;19.50;8.27;;;4.20;87.50;;;;;;4995313;28;20489;-91
2021/03/18 02:37:35;;;;;;;18.60;9.23;;;4.20;87.70;;;;;;4995661;28;20049;-89
2021/03/18 02:40:21;;;;;;;19.83;8.40;;;4.10;87.70;;;;;;4994981;28;20022;-91
2021/03/18 02:42:54;;;;;;;20.80;8.27;;;4.10;87.80;;;;;;4995283;28;20026;-90
2021/03/18 02:45:21;;;;;;;17.93;8.30;;;4.10;87.80;;;;;;4995169;28;20395;-90
2021/03/18 02:47:49;;;;;;;22.63;8.37;;;4.20;88.00;;;;;;4995940;28;20160;-90
2021/03/18 02:50:15;;;;;;;22.03;9.77;;;4.20;87.90;;;;;;4995180;28;20113;-90
2021/03/18 02:52:44;;;;;;;26.00;8.90;;;4.10;87.90;;;;;;4995034;28;20109;-89
2021/03/18 02:55:11;;;;;;;20.65;9.38;;;4.10;88.10;;;;;;4994946;28;20026;-89
2021/03/18 02:57:39;;;;;;;23.27;9.30;;;4.00;88.40;;;;;;4995460;28;20033;-88
2021/03/18 03:00:10;;;;;;;22.47;10.07;;;4.10;88.20;;;;;;4995512;28;20033;-88
2021/03/18 03:02:36;;;;;;;24.17;9.63;;;4.00;88.40;;;;;;4995184;28;20030;-88
2021/03/18 03:05:04;;;;;;;23.30;10.60;;;4.10;88.40;;;;;;4995303;28;20032;-88
2021/03/18 03:07:30;;;;;;;22.60;10.73;;;4.10;88.40;;;;;;4995287;28;20022;-89
2021/03/18 03:09:57;;;;;;;27.67;11.20;;;4.10;88.50;;;;;;4995501;28;20048;-88
2021/03/18 03:12:26;;;;;;;29.67;11.77;;;4.10;88.40;;;;;;5013271;28;20110;-89
2021/03/18 03:14:54;;;;;;;23.83;11.30;;;4.10;88.30;;;;;;4995023;28;20076;-89
2021/03/18 03:17:22;;;;;;;34.00;13.97;;;4.10;88.20;;;;;;4995560;28;20072;-88
2021/03/18 03:19:49;;;;;;;32.10;13.87;;;4.10;88.20;;;;;;4995254;28;20555;-88
2021/03/18 03:22:15;;;;;;;32.33;13.77;;;4.10;88.10;;;;;;4995267;28;20029;-88
2021/03/18 03:24:44;;;;;;;30.97;12.73;;;4.10;88.20;;;;;;4996305;28;20181;-87
2021/03/18 03:27:11;;;;;;;30.23;11.47;;;4.10;88.40;;;;;;4998508;28;20068;-88
2021/03/18 03:29:41;;;;;;;26.47;10.97;;;4.10;88.40;;;;;;4998993;28;20041;-88
2021/03/18 03:32:08;;;;;;;26.73;10.10;;;4.10;88.40;;;;;;5000203;28;20033;-88
2021/03/18 03:34:34;;;;;;;21.27;8.83;;;4.10;88.40;;;;;;5004558;28;20032;-88
2021/03/18 03:37:00;;;;;;;20.47;7.67;;;4.10;88.40;;;;;;5007878;28;20025;-87
2021/03/18 03:39:25;;;;;;;22.10;8.40;;;4.10;88.40;;;;;;5005977;28;20037;-88
2021/03/18 03:41:51;;;;;;;24.47;8.10;;;4.10;88.80;;;;;;5008772;28;20030;-88
2021/03/18 03:44:17;;;;;;;23.97;8.80;;;4.10;88.60;;;;;;5005356;28;20022;-88
2021/03/18 03:46:43;;;;;;;19.83;7.90;;;4.00;88.40;;;;;;4995361;28;20460;-88
2021/03/18 03:49:09;;;;;;;24.70;8.07;;;4.10;88.60;;;;;;5014231;28;20022;-87
2021/03/18 03:52:05;;;;;;;24.10;8.93;;;4.00;89.30;;;;;;4995903;28;20390;-88
2021/03/18 03:54:32;;;;;;;23.90;7.70;;;4.00;88.80;;;;;;4996646;28;20042;-88
2021/03/18 03:57:01;;;;;;;20.80;8.50;;;3.90;89.00;;;;;;4994653;28;20049;-88
2021/03/18 03:59:30;;;;;;;25.67;8.73;;;3.90;89.10;;;;;;4994558;28;20269;-89
2021/03/18 04:01:59;;;;;;;20.15;7.97;;;3.90;89.30;;;;;;4994343;28;20115;-90
2021/03/18 04:04:33;;;;;;;23.23;8.23;;;3.90;89.20;;;;;;4994059;28;20018;-90
2021/03/18 04:07:02;;;;;;;19.23;8.23;;;3.90;89.20;;;;;;4994287;28;20040;-90
2021/03/18 04:09:29;;;;;;;25.58;8.55;;;3.90;89.10;;;;;;4994161;28;20103;-90
2021/03/18 04:11:56;;;;;;;20.07;7.73;;;3.90;89.10;;;;;;4994036;28;20029;-89
2021/03/18 04:14:28;;;;;;;21.37;8.43;;;3.90;89.20;;;;;;4993763;28;20025;-89
2021/03/18 04:16:57;;;;;;;20.00;8.33;;;3.90;89.10;;;;;;5011548;28;20395;-89
2021/03/18 04:19:24;;;;;;;24.90;8.93;;;3.90;89.20;;;;;;4994248;28;20479;-90
2021/03/18 04:21:52;;;;;;;22.50;8.17;;;3.90;89.20;;;;;;4994154;28;20160;-88
2021/03/18 04:24:19;;;;;;;20.17;8.67;;;3.90;89.30;;;;;;4994078;28;20018;-90
2021/03/18 04:26:46;;;;;;;26.17;8.03;;;3.80;89.30;;;;;;4993907;28;20253;-90
2021/03/18 04:29:13;;;;;;;22.70;8.20;;;3.80;89.50;;;;;;4994010;28;20018;-87
2021/03/18 04:31:40;;;;;;;20.27;7.77;;;3.70;89.70;;;;;;4994391;28;20026;-87
2021/03/18 04:34:07;;;;;;;24.70;9.63;;;3.70;89.70;;;;;;5006152;28;20035;-89
2021/03/18 04:36:33;;;;;;;24.90;11.07;;;3.80;89.70;;;;;;5013446;28;20024;-90
2021/03/18 04:39:00;;;;;;;20.33;8.70;;;3.70;89.70;;;;;;5013509;28;20018;-90
2021/03/18 04:41:28;;;;;;;23.13;8.87;;;3.70;89.80;;;;;;5031413;28;20478;-89
2021/03/18 04:43:55;;;;;;;22.67;8.63;;;3.70;89.70;;;;;;5013705;28;20426;-89
2021/03/18 04:46:23;;;;;;;23.50;9.60;;;3.80;89.60;;;;;;5013376;28;20479;-90
2021/03/18 04:48:50;;;;;;;22.73;8.63;;;3.70;89.60;;;;;;5013793;28;20136;-90
2021/03/18 04:51:15;;;;;;;22.50;9.53;;;3.70;89.70;;;;;;5013164;28;20030;-89
2021/03/18 04:53:41;;;;;;;21.13;8.70;;;3.70;89.90;;;;;;5013203;28;20044;-89
2021/03/18 04:56:08;;;;;;;22.30;9.23;;;3.60;90.50;;;;;;5013055;28;20044;-89
2021/03/18 04:58:36;;;;;;;23.10;9.93;;;3.60;90.10;;;;;;5031774;28;20136;-90
2021/03/18 05:01:03;;;;;;;19.13;9.00;;;3.60;90.20;;;;;;5013319;28;20025;-89
2021/03/18 05:03:29;;;;;;;19.70;9.30;;;3.60;90.10;;;;;;5034056;28;20038;-90
2021/03/18 05:05:59;;;;;;;21.40;8.27;;;3.50;90.10;;;;;;5017201;28;20437;-89
2021/03/18 05:08:28;;;;;;;21.83;8.33;;;3.50;90.10;;;;;;5016762;28;20445;-89
2021/03/18 05:10:54;;;;;;;20.17;9.40;;;3.50;90.20;;;;;;5016458;28;20498;-90
2021/03/18 05:13:20;;;;;;;23.87;8.10;;;3.50;90.20;;;;;;5016935;28;20543;-88
2021/03/18 05:15:46;;;;;;;19.43;8.13;;;3.50;90.20;;;;;;5017094;28;20057;-89
2021/03/18 05:18:14;;;;;;;18.13;8.37;;;3.40;90.20;;;;;;5016973;28;20053;-90
2021/03/18 05:20:42;;;;;;;22.53;8.37;;;3.40;90.40;;;;;;5034572;28;20025;-89
2021/03/18 05:23:10;;;;;;;18.77;8.23;;;3.40;90.40;;;;;;5024326;28;20267;-90
2021/03/18 05:25:36;;;;;;;21.67;9.03;;;3.40;90.40;;;;;;5036605;28;20483;-90
2021/03/18 05:28:02;;;;;;;20.70;8.63;;;3.40;90.60;;;;;;5036542;28;20040;-89
2021/03/18 05:30:29;;;;;;;20.87;8.77;;;3.40;90.30;;;;;;5054777;28;20060;-89
2021/03/18 05:33:03;;;;;;;19.27;8.57;;;3.40;90.30;;;;;;5031186;28;20082;-89
2021/03/18 05:35:29;;;;;;;19.47;8.37;;;3.40;90.40;;;;;;4997082;28;20454;-90
2021/03/18 05:37:54;;;;;;;17.33;7.80;;;3.40;90.20;;;;;;4998280;28;20125;-89
2021/03/18 05:40:20;;;;;;;18.47;8.27;;;3.40;90.30;;;;;;4998830;28;20057;-89
2021/03/18 05:42:50;;;;;;;18.00;8.67;;;3.30;90.40;;;;;;4998483;28;20113;-89
2021/03/18 05:45:17;;;;;;;19.85;9.95;;;3.20;90.40;;;;;;4998226;28;20434;-90
2021/03/18 05:47:43;;;;;;;19.10;8.97;;;3.20;90.40;;;;;;4997128;28;20026;-90
2021/03/18 05:50:27;;;;;;;19.47;8.77;;;3.20;90.50;;;;;;4997065;28;20029;-89
2021/03/18 05:52:53;;;;;;;22.00;9.93;;;3.10;90.50;;;;;;4997620;28;20042;-89
2021/03/18 05:55:22;;;;;;;22.10;9.57;;;3.20;90.60;;;;;;4997212;28;20021;-89
2021/03/18 05:57:52;;;;;;;20.33;10.20;;;3.20;90.40;;;;;;5015630;28;20033;-90
2021/03/18 06:00:19;;;;;;;22.00;10.87;;;3.20;90.40;;;;;;4999103;28;20026;-88
2021/03/18 06:02:45;;;;;;;23.93;11.07;;;3.20;90.40;;;;;;5001775;28;20556;-88
2021/03/18 06:05:13;;;;;;;21.27;11.53;;;3.10;90.30;;;;;;5000876;28;20053;-88
2021/03/18 06:07:44;;;;;;;21.90;10.68;;;3.10;90.40;;;;;;5019897;28;20033;-87
2021/03/18 06:10:12;;;;;;;22.87;10.80;;;3.10;90.40;;;;;;5018791;28;20029;-87
2021/03/18 06:12:39;;;;;;;22.17;10.73;;;3.10;90.30;;;;;;5002006;28;20092;-87
2021/03/18 06:15:09;;;;;;;24.33;11.17;;;3.10;90.30;;;;;;5000263;28;20080;-87
2021/03/18 06:17:35;;;;;;;20.70;10.70;;;3.10;90.30;;;;;;5002333;28;20128;-88
2021/03/18 06:20:03;;;;;;;21.87;10.17;;;3.10;90.30;;;;;;5000583;28;20090;-86
2021/03/18 06:22:46;;;;;;;20.93;10.23;;;3.00;90.30;;;;;;5011691;28;20037;-87
2021/03/18 06:25:23;;;;;;;23.67;9.83;;;3.10;90.70;;;;;;5020952;28;20034;-86
2021/03/18 06:27:49;;;;;;;24.27;11.17;;;3.10;90.30;;;;;;5019708;28;20034;-86
2021/03/18 06:30:16;;;;;;;21.20;9.97;;;3.10;90.30;;;;;;5020481;28;20028;-88
2021/03/18 06:32:42;;;;;;;24.43;11.20;;;3.10;90.30;;;;;;5020738;28;20132;-87
2021/03/18 06:35:10;;;;;;;21.83;10.93;;;3.10;90.30;;;;;;5019586;28;20514;-86
2021/03/18 06:37:42;;;;;;;23.60;10.93;;;3.20;90.30;;;;;;5019021;28;20083;-88
2021/03/18 06:40:19;;;;;;;21.07;10.57;;;3.20;90.20;;;;;;5001092;28;20030;-86
2021/03/18 06:42:57;;;;;;;22.77;11.10;;;3.30;90.20;;;;;;5000426;28;20079;-86
2021/03/18 06:45:35;;;;;;;24.47;11.50;;;3.20;90.10;;;;;;5003291;28;20030;-84
2021/03/18 06:48:03;;;;;;;23.63;11.47;;;3.20;90.20;;;;;;5018795;28;20033;-85
2021/03/18 06:50:35;;;;;;;22.60;10.87;;;3.20;90.60;;;;;;5018815;28;20029;-85
2021/03/18 06:53:02;;;;;;;21.73;10.93;;;3.20;90.20;;;;;;5017347;28;20502;-86
2021/03/18 06:55:32;;;;;;;23.70;10.93;;;3.20;90.20;;;;;;5000814;28;20476;-86
2021/03/18 06:58:28;;;;;;;22.70;11.27;;;3.30;90.20;;;;;;5019345;28;20056;-86
2021/03/18 07:01:06;;;;;;;21.40;10.17;;;3.30;90.20;;;;;;5031981;28;20033;-84
2021/03/18 07:03:37;;;;;;;25.10;11.57;;;3.30;90.20;;;;;;5016848;28;20099;-86
2021/03/18 07:06:08;;;;;;;22.20;10.80;;;3.40;90.20;;;;;;4998192;28;20376;-86
2021/03/18 07:08:36;;;;;;;24.53;11.37;;;3.40;90.00;;;;;;5018117;28;20036;-86
2021/03/18 07:11:22;;;;;;;21.43;10.43;;;3.40;90.00;;;;;;5001265;28;20030;-86
2021/03/18 07:13:50;;;;;;;22.63;10.53;;;3.40;90.00;;;;;;4998497;28;20451;-85
2021/03/18 07:16:16;;;;;;;24.53;11.07;;;3.40;90.00;;;;;;5008247;28;20430;-86
2021/03/18 07:18:42;;;;;;;22.50;11.07;;;3.40;90.00;;;;;;5013741;28;20033;-86
2021/03/18 07:21:12;;;;;;;23.97;11.33;;;3.50;90.00;;;;;;5003113;28;20034;-87
2021/03/18 07:23:44;;;;;;;24.10;11.23;;;3.40;90.10;;;;;;5004612;28;20029;-87
2021/03/18 07:26:14;;;;;;;21.60;10.93;;;3.40;90.10;;;;;;5018411;28;20128;-86
2021/03/18 07:28:40;;;;;;;20.07;9.87;;;3.50;90.10;;;;;;5018481;28;20105;-86
2021/03/18 07:31:06;;;;;;;22.97;11.43;;;3.40;90.00;;;;;;5013341;28;20041;-86
2021/03/18 07:33:32;;;;;;;22.00;11.33;;;3.50;90.00;;;;;;5005142;28;20017;-86
2021/03/18 07:36:00;;;;;;;25.17;11.07;;;3.50;90.10;;;;;;5049145;28;20038;-86
2021/03/18 07:38:25;;;;;;;23.40;11.33;;;3.50;90.00;;;;;;5017896;28;20057;-86
2021/03/18 07:40:51;;;;;;;24.43;12.17;;;3.50;90.00;;;;;;4999130;28;20077;-86
2021/03/18 07:43:18;;;;;;;23.97;12.00;;;3.60;90.00;;;;;;5016766;28;20026;-87
2021/03/18 07:45:44;;;;;;;22.50;10.97;;;3.60;89.90;;;;;;5000136;28;20030;-93
2021/03/18 07:48:12;;;;;;;23.63;11.20;;;3.60;90.00;;;;;;5006844;28;20033;-93
2021/03/18 07:50:39;;;;;;;24.03;11.23;;;3.60;90.00;;;;;;5015766;28;20056;-91
2021/03/18 07:53:09;;;;;;;22.70;12.00;;;3.60;89.90;;;;;;4998205;28;20042;-91
2021/03/18 07:55:35;;;;;;;25.15;12.50;;;3.70;89.90;;;;;;5008318;28;20041;-91
2021/03/18 07:58:01;;;;;;;22.17;10.80;;;3.70;90.00;;;;;;4999089;28;20120;-89
2021/03/18 08:00:38;;;;;;;24.07;11.97;;;3.70;89.90;;;;;;5011386;28;20034;-93
2021/03/18 08:03:30;;;;;;;22.97;11.33;;;3.70;90.00;;;;;;5007730;28;20443;-89
2021/03/18 08:05:58;;;;;;;26.43;11.73;;;3.70;90.00;;;;;;4997826;28;20023;-87
2021/03/18 08:08:33;;;;;;;22.63;11.80;;;3.70;90.40;;;;;;5003462;28;20027;-92
2021/03/18 08:11:06;;;;;;;22.80;11.43;;;3.70;89.90;;;;;;5016802;28;20023;-92
2021/03/18 08:13:34;;;;;;;24.47;10.93;;;3.70;90.00;;;;;;5017023;28;20027;-91
2021/03/18 08:16:00;;;;;;;25.20;11.77;;;3.70;89.90;;;;;;4995427;28;20022;-89
2021/03/18 08:18:25;;;;;;;22.73;11.80;;;3.70;89.90;;;;;;4995649;28;20025;-88
2021/03/18 08:20:51;;;;;;;25.43;12.17;;;3.80;89.90;;;;;;5011176;28;20032;-90
2021/03/18 08:23:22;;;;;;;23.27;11.30;;;3.80;89.80;;;;;;5014247;28;20037;-91
2021/03/18 08:26:10;;;;;;;23.87;12.00;;;3.90;89.80;;;;;;5013224;28;20038;-90
2021/03/18 08:28:45;;;;;;;25.20;11.90;;;3.90;89.80;;;;;;4997163;28;20038;-89
2021/03/18 08:31:12;;;;;;;25.57;12.30;;;3.90;89.80;;;;;;4997848;28;20062;-91
2021/03/18 08:34:00;;;;;;;23.50;11.40;;;4.00;89.90;;;;;;4999854;28;20030;-90
2021/03/18 08:36:31;;;;;;;24.73;12.07;;;4.00;89.50;;;;;;5001476;28;20030;-92
2021/03/18 08:46:38;;;;;;;26.87;12.43;;;4.10;89.40;;;;;;4983494;28;20101;-91
2021/03/18 08:49:30;;;;;;;22.87;12.33;;;4.10;89.50;;;;;;4942615;29;20497;-90
2021/03/18 08:52:05;;;;;;;22.77;11.47;;;4.10;89.50;;;;;;4947055;28;20172;-87
2021/03/18 08:54:40;;;;;;;24.50;11.17;;;4.20;89.60;;;;;;4970102;28;20035;-89
2021/03/18 08:57:32;;;;;;;24.43;11.50;;;4.20;89.10;;;;;;4954983;28;20065;-91
2021/03/18 09:00:08;;;;;;;24.13;12.07;;;4.20;89.10;;;;;;4957260;28;20038;-89
2021/03/18 09:02:35;;;;;;;26.70;12.27;;;4.20;89.20;;;;;;4968746;28;20124;-87
2021/03/18 09:05:04;;;;;;;22.67;11.47;;;4.30;89.10;;;;;;4971299;28;20432;-89
2021/03/18 09:07:31;;;;;;;26.00;12.30;;;4.40;89.00;;;;;;4968679;28;20030;-90
2021/03/18 09:10:12;;;;;;;22.37;11.10;;;4.40;89.70;;;;;;4969345;28;20030;-88
2021/03/18 09:12:50;;;;;;;23.87;11.40;;;4.40;89.20;;;;;;4951631;28;20034;-91
2021/03/18 09:15:23;;;;;;;22.60;11.30;;;4.40;89.10;;;;;;4955892;28;20455;-92
2021/03/18 09:17:57;;;;;;;25.40;11.10;;;4.50;88.80;;;;;;4962450;28;20026;-92
2021/03/18 09:20:27;;;;;;;26.73;11.87;;;4.60;88.60;;;;;;4967290;28;20023;-89
2021/03/18 09:22:53;;;;;;;25.45;12.75;;;4.60;88.50;;;;;;4963602;28;20037;-84
2021/03/18 09:25:24;;;;;;;25.27;12.10;;;4.60;88.70;;;;;;4974499;28;20287;-84
2021/03/18 09:28:02;;;;;;;26.30;11.97;;;4.60;88.60;;;;;;4958775;28;20042;-92
2021/03/18 09:37:02;;;;;;;23.30;12.20;;;4.80;88.50;;;;;;5064990;28;20096;-91
2021/03/18 09:39:28;;;;;;;24.17;11.90;;;4.70;88.50;;;;;;5049567;28;20021;-92
2021/03/18 09:41:58;;;;;;;22.70;11.13;;;4.80;88.60;;;;;;5056127;28;20108;-91
2021/03/18 09:44:26;;;;;;;22.83;11.63;;;4.80;88.40;;;;;;5046082;28;20119;-91
2021/03/18 09:46:54;;;;;;;27.30;12.57;;;4.80;88.30;;;;;;5041620;28;20110;-92
2021/03/18 09:49:35;;;;;;;24.08;12.60;;;4.80;88.50;;;;;;5044283;28;20124;-90
2021/03/18 09:52:04;;;;;;;27.23;12.63;;;4.80;88.40;;;;;;5044128;28;20068;-91
2021/03/18 09:54:30;;;;;;;26.40;13.68;;;4.90;88.40;;;;;;5039439;28;20026;-90
2021/03/18 09:57:01;;;;;;;27.57;14.67;;;4.90;88.80;;;;;;5045706;28;20033;-90
2021/03/18 09:59:27;;;;;;;27.07;13.97;;;4.90;88.30;;;;;;5028214;28;20030;-90
2021/03/18 10:01:54;;;;;;;26.80;13.87;;;4.90;88.20;;;;;;5028374;28;20090;-92
2021/03/18 10:04:20;;;;;;;27.03;14.70;;;5.00;88.10;;;;;;5037637;28;20043;-92
2021/03/18 10:06:48;;;;;;;29.73;14.23;;;5.00;88.20;;;;;;5033008;28;20033;-91
2021/03/18 10:09:23;;;;;;;28.63;15.33;;;5.00;88.10;;;;;;5043015;28;20059;-92
2021/03/18 10:11:57;;;;;;;28.43;15.83;;;5.00;88.10;;;;;;5033123;28;20085;-91
2021/03/18 10:14:25;;;;;;;29.63;15.50;;;5.00;88.30;;;;;;5034095;28;20053;-92
2021/03/18 10:16:53;;;;;;;31.53;16.07;;;5.00;87.90;;;;;;5024666;28;20029;-92
2021/03/18 10:19:22;;;;;;;31.47;15.73;;;5.00;88.00;;;;;;5033096;28;20025;-91
2021/03/18 10:21:48;;;;;;;31.87;16.60;;;5.00;88.60;;;;;;5021540;28;20036;-90
2021/03/18 10:24:15;;;;;;;36.33;17.90;;;5.00;87.90;;;;;;5036746;28;20036;-92
2021/03/18 10:26:41;;;;;;;37.73;17.97;;;5.00;88.20;;;;;;5040379;28;20024;-92
2021/03/18 10:29:08;;;;;;;38.47;19.90;;;5.00;88.20;;;;;;5050777;28;20024;-92
2021/03/18 10:31:36;;;;;;;37.80;18.30;;;5.00;88.30;;;;;;5056164;28;20041;-91
2021/03/18 10:34:04;;;;;;;35.10;18.70;;;5.00;88.10;;;;;;5035163;28;20633;-92
2021/03/18 10:36:38;;;;;;;35.03;18.90;;;5.00;88.00;;;;;;5033299;28;20025;-91
2021/03/18 10:39:09;;;;;;;36.83;17.97;;;5.00;88.30;;;;;;5023448;28;20449;-91
2021/03/18 10:41:56;;;;;;;37.17;18.80;;;5.00;88.00;;;;;;5025046;28;20045;-91
2021/03/18 10:44:37;;;;;;;35.47;18.97;;;5.00;88.00;;;;;;5010041;28;20033;-74
2021/03/18 10:47:20;;;;;;;36.27;19.60;;;5.00;88.10;;;;;;5017548;28;20067;-87
2021/03/18 10:50:04;;;;;;;39.37;20.33;;;5.10;88.00;;;;;;5036017;28;20030;-88
2021/03/18 10:52:30;;;;;;;36.67;19.00;;;5.00;88.40;;;;;;5014016;28;20105;-86
2021/03/18 10:54:57;;;;;;;35.70;18.50;;;5.10;87.90;;;;;;5012354;28;20432;-85
2021/03/18 10:57:23;;;;;;;35.23;18.47;;;5.30;87.70;;;;;;5028938;28;20068;-84
2021/03/18 11:00:08;;;;;;;37.00;20.00;;;5.30;87.30;;;;;;5011894;28;20092;-86
2021/03/18 11:02:34;;;;;;;38.23;18.87;;;5.40;87.00;;;;;;5012666;28;20039;-88
2021/03/18 11:05:01;;;;;;;37.63;18.07;;;5.40;87.20;;;;;;5011577;28;20029;-89
2021/03/18 11:07:28;;;;;;;31.43;17.50;;;5.40;87.20;;;;;;5017567;28;20040;-88
2021/03/18 11:10:14;;;;;;;33.30;18.70;;;5.50;87.20;;;;;;5011360;28;20029;-87
2021/03/18 11:12:41;;;;;;;35.67;17.73;;;5.50;87.10;;;;;;5014550;28;20523;-85
2021/03/18 11:15:09;;;;;;;34.77;17.40;;;5.60;87.00;;;;;;5016334;28;20175;-89
2021/03/18 11:17:35;;;;;;;36.10;17.70;;;5.70;86.80;;;;;;5013869;28;20048;-87
2021/03/18 11:20:17;;;;;;;29.60;15.67;;;5.70;86.80;;;;;;5023098;28;20033;-88
2021/03/18 11:22:43;;;;;;;35.07;16.57;;;5.80;86.60;;;;;;5013863;28;20068;-89
2021/03/18 11:25:10;;;;;;;34.37;16.90;;;5.90;86.40;;;;;;5029255;28;20603;-90
2021/03/18 11:27:37;;;;;;;34.43;16.80;;;5.90;86.20;;;;;;5011718;28;20440;-87
2021/03/18 11:30:07;;;;;;;33.20;16.13;;;6.00;86.00;;;;;;5011009;28;20040;-87
2021/03/18 11:32:33;;;;;;;30.07;15.83;;;6.10;85.60;;;;;;5027561;28;20478;-88
2021/03/18 11:35:00;;;;;;;34.30;16.23;;;6.10;85.40;;;;;;5008830;28;20025;-87
2021/03/18 11:37:27;;;;;;;35.67;17.43;;;6.20;85.50;;;;;;5007128;28;20045;-88
2021/03/18 11:39:53;;;;;;;34.43;16.53;;;6.20;85.50;;;;;;5013023;28;20034;-87
2021/03/18 11:42:18;;;;;;;33.60;17.00;;;6.30;85.40;;;;;;5031903;28;20681;-87
2021/03/18 11:44:45;;;;;;;38.43;16.17;;;6.30;85.30;;;;;;5028482;28;20030;-91
2021/03/18 11:47:13;;;;;;;31.87;16.50;;;6.40;85.00;;;;;;5010132;28;20367;-87
2021/03/18 11:49:41;;;;;;;35.00;16.17;;;6.40;85.10;;;;;;5014348;28;20047;-86
2021/03/18 11:52:07;;;;;;;27.80;13.17;;;6.40;84.80;;;;;;5015944;28;20048;-86
2021/03/18 11:54:34;;;;;;;28.77;13.23;;;6.40;84.80;;;;;;5011559;28;20239;-87
2021/03/18 11:57:00;;;;;;;31.73;14.80;;;6.40;84.60;;;;;;5008545;28;20445;-87
2021/03/18 11:59:26;;;;;;;30.93;15.10;;;6.40;84.20;;;;;;5011711;28;20024;-91
2021/03/18 12:01:52;;;;;;;30.70;14.87;;;6.40;84.80;;;;;;5012629;28;20037;-86
2021/03/18 12:04:19;;;;;;;32.50;14.67;;;6.40;84.80;;;;;;5018624;28;20060;-86
2021/03/18 12:06:45;;;;;;;30.13;13.20;;;6.40;84.80;;;;;;5011325;28;20507;-86
2021/03/18 12:09:10;;;;;;;29.40;14.00;;;6.30;84.90;;;;;;5010296;28;20032;-86
2021/03/18 12:11:37;;;;;;;31.70;12.93;;;6.30;84.80;;;;;;5011516;28;20044;-86
2021/03/18 12:14:03;;;;;;;29.03;12.67;;;6.30;84.60;;;;;;5012854;28;20096;-86
2021/03/18 12:16:29;;;;;;;26.50;12.20;;;6.30;85.30;;;;;;5031901;28;20461;-85
2021/03/18 12:18:55;;;;;;;25.67;11.57;;;6.20;84.60;;;;;;5031827;28;20037;-85
2021/03/18 12:21:21;;;;;;;26.67;11.97;;;6.20;84.80;;;;;;5021912;28;20032;-86
2021/03/18 12:23:46;;;;;;;24.60;12.03;;;6.10;84.70;;;;;;5041018;23;20422;-87
2021/03/18 12:26:12;;;;;;;26.60;11.97;;;6.10;85.00;;;;;;5027435;28;20063;-87
2021/03/18 12:28:38;;;;;;;30.60;11.87;;;6.00;84.60;;;;;;5026561;28;20038;-87
2021/03/18 12:31:04;;;;;;;28.33;12.63;;;6.00;84.80;;;;;;5007759;28;20935;-88
2021/03/18 12:33:30;;;;;;;26.27;11.90;;;6.00;84.80;;;;;;5004408;28;20046;-87
2021/03/18 12:35:55;;;;;;;26.87;11.33;;;5.90;84.90;;;;;;4990591;28;20508;-88
2021/03/18 12:38:22;;;;;;;25.60;10.87;;;5.90;85.00;;;;;;4993408;28;20164;-88
2021/03/18 12:40:50;;;;;;;26.07;10.40;;;5.80;85.00;;;;;;4991800;28;20148;-87
2021/03/18 12:43:15;;;;;;;26.37;10.17;;;5.80;85.20;;;;;;4989297;28;20037;-87
2021/03/18 12:45:42;;;;;;;22.77;9.77;;;5.80;85.20;;;;;;4992124;28;20459;-87
2021/03/18 12:48:09;;;;;;;24.57;9.93;;;5.80;85.10;;;;;;4996964;28;20041;-89
2021/03/18 12:50:36;;;;;;;23.80;10.23;;;5.80;85.20;;;;;;4995278;28;20029;-87
2021/03/18 12:53:02;;;;;;;22.47;9.63;;;5.80;85.40;;;;;;4992305;28;20061;-84
2021/03/18 12:55:27;;;;;;;22.43;9.30;;;5.80;85.30;;;;;;5001344;28;20052;-89
2021/03/18 12:57:54;;;;;;;21.03;8.43;;;5.90;85.30;;;;;;5009927;28;20487;-87
2021/03/18 13:00:23;;;;;;;26.00;12.00;;;5.90;85.30;;;;;;4996719;28;20045;-90
2021/03/18 13:02:50;;;;;;;22.98;9.60;;;5.90;85.30;;;;;;4993200;28;20037;-90
2021/03/18 13:05:16;;;;;;;23.23;9.70;;;5.90;85.90;;;;;;4996033;28;20153;-88